sensor_id;sensor_type;location;lat;lon;timestamp;pressure;altitude;pressure_sealevel;temperature;humidity
56831;BME280;42713;42.676;23.352;2023-04-02T00:01:48;93905.00;;;7.82;60.07
56831;BME280;42713;42.676;23.352;2023-04-02T00:04:16;93917.88;;;7.88;60.49
56831;BME280;42713;42.676;23.352;2023-04-02T00:06:52;93900.09;;;7.85;59.87
56831;BME280;42713;42.676;23.352;2023-04-02T00:09:30;93891.44;;;7.79;60.21
56831;BME280;42713;42.676;23.352;2023-04-02T00:11:57;93895.88;;;7.79;59.95
56831;BME280;42713;42.676;23.352;2023-04-02T00:14:28;93901.13;;;7.84;60.05
56831;BME280;42713;42.676;23.352;2023-04-02T00:16:56;93894.09;;;7.85;59.74
56831;BME280;42713;42.676;23.352;2023-04-02T00:22:17;93898.63;;;7.94;59.33
56831;BME280;42713;42.676;23.352;2023-04-02T00:24:43;93904.63;;;7.95;59.24
56831;BME280;42713;42.676;23.352;2023-04-02T00:27:11;93898.34;;;7.91;58.71
56831;BME280;42713;42.676;23.352;2023-04-02T00:29:44;93892.88;;;7.92;58.85
56831;BME280;42713;42.676;23.352;2023-04-02T00:32:17;93893.19;;;7.96;59.05
56831;BME280;42713;42.676;23.352;2023-04-02T00:34:45;93890.28;;;7.92;59.20
56831;BME280;42713;42.676;23.352;2023-04-02T00:37:16;93886.13;;;7.97;58.64
56831;BME280;42713;42.676;23.352;2023-04-02T00:39:49;93880.38;;;7.94;58.75
56831;BME280;42713;42.676;23.352;2023-04-02T00:42:15;93882.75;;;7.96;58.39
56831;BME280;42713;42.676;23.352;2023-04-02T00:44:44;93891.91;;;7.99;57.90
56831;BME280;42713;42.676;23.352;2023-04-02T00:47:19;93893.72;;;7.98;58.51
56831;BME280;42713;42.676;23.352;2023-04-02T00:49:45;93886.38;;;7.95;57.83
56831;BME280;42713;42.676;23.352;2023-04-02T00:52:18;93898.59;;;7.89;58.47
56831;BME280;42713;42.676;23.352;2023-04-02T00:54:51;93886.69;;;7.99;57.87
56831;BME280;42713;42.676;23.352;2023-04-02T00:57:21;93888.19;;;7.94;57.84
56831;BME280;42713;42.676;23.352;2023-04-02T01:02:38;93884.38;;;8.02;58.01
56831;BME280;42713;42.676;23.352;2023-04-02T01:07:49;93895.50;;;7.92;58.92
56831;BME280;42713;42.676;23.352;2023-04-02T01:15:50;93891.06;;;7.93;62.49
56831;BME280;42713;42.676;23.352;2023-04-02T01:24:03;93901.22;;;7.67;64.14
56831;BME280;42713;42.676;23.352;2023-04-02T01:26:57;93908.13;;;7.56;64.54
56831;BME280;42713;42.676;23.352;2023-04-02T01:29:35;93904.44;;;7.52;64.56
56831;BME280;42713;42.676;23.352;2023-04-02T01:32:06;93910.09;;;7.44;65.68
56831;BME280;42713;42.676;23.352;2023-04-02T01:34:34;93923.03;;;7.39;65.91
56831;BME280;42713;42.676;23.352;2023-04-02T01:42:47;93911.13;;;7.04;66.75
56831;BME280;42713;42.676;23.352;2023-04-02T01:45:18;93909.72;;;6.96;67.38
56831;BME280;42713;42.676;23.352;2023-04-02T01:47:46;93910.19;;;6.93;67.65
56831;BME280;42713;42.676;23.352;2023-04-02T01:50:33;93909.88;;;6.89;67.97
56831;BME280;42713;42.676;23.352;2023-04-02T01:53:11;93910.06;;;6.65;68.23
56831;BME280;42713;42.676;23.352;2023-04-02T01:55:50;93906.75;;;6.53;68.75
56831;BME280;42713;42.676;23.352;2023-04-02T01:58:19;93901.06;;;6.39;69.47
56831;BME280;42713;42.676;23.352;2023-04-02T02:01:01;93895.94;;;6.44;69.63
56831;BME280;42713;42.676;23.352;2023-04-02T02:03:28;93902.00;;;6.50;68.61
56831;BME280;42713;42.676;23.352;2023-04-02T02:05:54;93892.38;;;6.33;69.32
56831;BME280;42713;42.676;23.352;2023-04-02T02:11:04;93893.31;;;6.27;70.13
56831;BME280;42713;42.676;23.352;2023-04-02T02:13:29;93900.19;;;6.33;69.86
56831;BME280;42713;42.676;23.352;2023-04-02T02:16:00;93898.06;;;6.30;69.66
56831;BME280;42713;42.676;23.352;2023-04-02T02:18:27;93904.94;;;6.36;69.70
56831;BME280;42713;42.676;23.352;2023-04-02T02:20:55;93899.72;;;6.36;69.54
56831;BME280;42713;42.676;23.352;2023-04-02T02:23:22;93898.47;;;6.39;69.76
56831;BME280;42713;42.676;23.352;2023-04-02T02:25:47;93906.59;;;6.43;68.73
56831;BME280;42713;42.676;23.352;2023-04-02T02:28:26;93909.03;;;6.49;69.16
56831;BME280;42713;42.676;23.352;2023-04-02T02:31:00;93907.78;;;6.52;68.92
56831;BME280;42713;42.676;23.352;2023-04-02T02:33:40;93905.47;;;6.56;68.87
56831;BME280;42713;42.676;23.352;2023-04-02T02:39:03;93895.16;;;6.61;68.13
56831;BME280;42713;42.676;23.352;2023-04-02T02:41:38;93901.00;;;6.68;68.39
56831;BME280;42713;42.676;23.352;2023-04-02T02:46:35;93893.47;;;6.89;69.43
56831;BME280;42713;42.676;23.352;2023-04-02T02:49:03;93903.16;;;6.93;67.70
56831;BME280;42713;42.676;23.352;2023-04-02T02:51:44;93894.56;;;6.93;68.62
56831;BME280;42713;42.676;23.352;2023-04-02T02:54:11;93905.28;;;6.96;69.58
56831;BME280;42713;42.676;23.352;2023-04-02T02:56:41;93908.44;;;6.98;69.87
56831;BME280;42713;42.676;23.352;2023-04-02T02:59:10;93901.59;;;6.92;69.30
56831;BME280;42713;42.676;23.352;2023-04-02T03:01:37;93904.81;;;6.99;69.48
56831;BME280;42713;42.676;23.352;2023-04-02T03:04:03;93902.44;;;6.98;69.42
56831;BME280;42713;42.676;23.352;2023-04-02T03:06:29;93903.78;;;7.00;69.04
56831;BME280;42713;42.676;23.352;2023-04-02T03:09:14;93906.09;;;6.97;69.31
56831;BME280;42713;42.676;23.352;2023-04-02T03:11:48;93913.09;;;6.96;70.19
56831;BME280;42713;42.676;23.352;2023-04-02T03:14:32;93916.97;;;6.94;69.70
56831;BME280;42713;42.676;23.352;2023-04-02T03:17:16;93911.75;;;6.94;69.36
56831;BME280;42713;42.676;23.352;2023-04-02T03:19:51;93909.09;;;6.89;69.68
56831;BME280;42713;42.676;23.352;2023-04-02T03:27:35;93922.16;;;6.94;70.70
56831;BME280;42713;42.676;23.352;2023-04-02T03:30:36;93922.97;;;6.94;70.50
56831;BME280;42713;42.676;23.352;2023-04-02T03:33:12;93925.25;;;6.91;70.82
56831;BME280;42713;42.676;23.352;2023-04-02T03:38:24;93922.88;;;6.89;70.87
56831;BME280;42713;42.676;23.352;2023-04-02T03:41:18;93930.63;;;6.84;70.36
56831;BME280;42713;42.676;23.352;2023-04-02T03:43:46;93916.75;;;6.78;70.86
56831;BME280;42713;42.676;23.352;2023-04-02T03:46:19;93921.25;;;6.83;70.67
56831;BME280;42713;42.676;23.352;2023-04-02T03:48:50;93918.56;;;6.78;69.57
56831;BME280;42713;42.676;23.352;2023-04-02T03:51:21;93925.34;;;6.79;70.19
56831;BME280;42713;42.676;23.352;2023-04-02T03:53:48;93922.97;;;6.77;71.53
56831;BME280;42713;42.676;23.352;2023-04-02T03:56:27;93924.78;;;6.77;71.89
56831;BME280;42713;42.676;23.352;2023-04-02T03:59:10;93929.97;;;6.77;71.47
56831;BME280;42713;42.676;23.352;2023-04-02T04:02:01;93933.63;;;6.76;71.51
56831;BME280;42713;42.676;23.352;2023-04-02T04:04:32;93922.44;;;6.75;71.92
56831;BME280;42713;42.676;23.352;2023-04-02T04:06:59;93922.88;;;6.72;71.64
56831;BME280;42713;42.676;23.352;2023-04-02T04:09:31;93933.09;;;6.74;72.29
56831;BME280;42713;42.676;23.352;2023-04-02T04:14:32;93943.25;;;6.75;72.26
56831;BME280;42713;42.676;23.352;2023-04-02T04:22:37;93944.72;;;6.71;71.50
56831;BME280;42713;42.676;23.352;2023-04-02T04:25:05;93943.66;;;6.67;71.11
56831;BME280;42713;42.676;23.352;2023-04-02T04:27:54;93955.38;;;6.69;71.46
56831;BME280;42713;42.676;23.352;2023-04-02T04:35:50;93963.91;;;6.65;72.33
56831;BME280;42713;42.676;23.352;2023-04-02T04:38:45;93961.75;;;6.62;71.79
56831;BME280;42713;42.676;23.352;2023-04-02T04:41:16;93964.59;;;6.60;72.11
56831;BME280;42713;42.676;23.352;2023-04-02T04:43:58;93964.38;;;6.62;72.65
56831;BME280;42713;42.676;23.352;2023-04-02T04:46:40;93968.03;;;6.61;72.40
56831;BME280;42713;42.676;23.352;2023-04-02T04:49:11;93965.94;;;6.63;72.30
56831;BME280;42713;42.676;23.352;2023-04-02T04:51:52;93966.75;;;6.63;72.32
56831;BME280;42713;42.676;23.352;2023-04-02T04:54:18;93966.75;;;6.63;72.48
56831;BME280;42713;42.676;23.352;2023-04-02T04:56:50;93965.47;;;6.66;71.73
56831;BME280;42713;42.676;23.352;2023-04-02T04:59:32;93961.00;;;6.61;71.76
56831;BME280;42713;42.676;23.352;2023-04-02T05:02:05;93969.97;;;6.70;72.04
56831;BME280;42713;42.676;23.352;2023-04-02T05:04:42;93973.91;;;6.73;72.04
56831;BME280;42713;42.676;23.352;2023-04-02T05:09:44;93970.91;;;6.81;71.98
56831;BME280;42713;42.676;23.352;2023-04-02T05:12:25;93968.88;;;6.83;71.27
56831;BME280;42713;42.676;23.352;2023-04-02T05:17:38;93973.69;;;6.92;71.16
56831;BME280;42713;42.676;23.352;2023-04-02T05:23:02;93973.31;;;7.00;69.64
56831;BME280;42713;42.676;23.352;2023-04-02T05:25:30;93972.81;;;7.03;69.80
56831;BME280;42713;42.676;23.352;2023-04-02T05:28:13;93984.09;;;7.09;71.21
56831;BME280;42713;42.676;23.352;2023-04-02T05:33:25;93989.69;;;7.18;70.21
56831;BME280;42713;42.676;23.352;2023-04-02T05:38:34;93981.31;;;7.15;69.19
56831;BME280;42713;42.676;23.352;2023-04-02T05:41:28;93995.47;;;7.20;68.47
56831;BME280;42713;42.676;23.352;2023-04-02T05:44:16;93987.72;;;7.25;68.54
56831;BME280;42713;42.676;23.352;2023-04-02T05:46:53;93983.59;;;7.29;68.12
56831;BME280;42713;42.676;23.352;2023-04-02T05:49:38;93993.78;;;7.30;67.23
56831;BME280;42713;42.676;23.352;2023-04-02T05:52:10;93991.47;;;7.34;67.55
56831;BME280;42713;42.676;23.352;2023-04-02T05:54:47;93997.09;;;7.43;67.79
56831;BME280;42713;42.676;23.352;2023-04-02T05:57:19;93994.06;;;7.51;67.18
56831;BME280;42713;42.676;23.352;2023-04-02T05:59:52;93996.50;;;7.58;67.25
56831;BME280;42713;42.676;23.352;2023-04-02T06:02:31;94000.50;;;7.66;66.55
56831;BME280;42713;42.676;23.352;2023-04-02T06:05:15;94004.97;;;7.70;66.12
56831;BME280;42713;42.676;23.352;2023-04-02T06:07:49;94006.34;;;7.73;65.75
56831;BME280;42713;42.676;23.352;2023-04-02T06:10:21;93997.78;;;7.77;65.65
56831;BME280;42713;42.676;23.352;2023-04-02T06:12:52;94002.50;;;7.81;65.67
56831;BME280;42713;42.676;23.352;2023-04-02T06:15:21;94009.78;;;7.78;64.81
56831;BME280;42713;42.676;23.352;2023-04-02T06:20:23;94004.81;;;7.77;64.28
56831;BME280;42713;42.676;23.352;2023-04-02T06:22:55;93996.34;;;7.87;64.76
56831;BME280;42713;42.676;23.352;2023-04-02T06:27:56;94005.91;;;8.03;65.69
56831;BME280;42713;42.676;23.352;2023-04-02T06:30:31;94013.28;;;8.12;65.54
56831;BME280;42713;42.676;23.352;2023-04-02T06:32:58;94005.03;;;8.20;66.25
56831;BME280;42713;42.676;23.352;2023-04-02T06:35:24;94006.69;;;8.26;65.38
56831;BME280;42713;42.676;23.352;2023-04-02T06:37:52;94003.84;;;8.33;64.38
56831;BME280;42713;42.676;23.352;2023-04-02T06:43:10;94001.59;;;8.41;63.73
56831;BME280;42713;42.676;23.352;2023-04-02T06:45:40;93995.34;;;8.43;63.40
56831;BME280;42713;42.676;23.352;2023-04-02T06:48:14;93995.41;;;8.48;63.75
56831;BME280;42713;42.676;23.352;2023-04-02T06:51:04;94003.06;;;8.54;62.99
56831;BME280;42713;42.676;23.352;2023-04-02T06:53:43;94016.66;;;8.56;63.03
56831;BME280;42713;42.676;23.352;2023-04-02T06:58:49;94009.41;;;8.64;61.43
56831;BME280;42713;42.676;23.352;2023-04-02T07:01:17;94014.34;;;8.60;61.16
56831;BME280;42713;42.676;23.352;2023-04-02T07:03:44;94017.50;;;8.62;61.56
56831;BME280;42713;42.676;23.352;2023-04-02T07:06:17;94015.97;;;8.66;62.05
56831;BME280;42713;42.676;23.352;2023-04-02T07:08:43;94019.66;;;8.70;61.14
56831;BME280;42713;42.676;23.352;2023-04-02T07:11:17;94023.84;;;8.71;61.34
56831;BME280;42713;42.676;23.352;2023-04-02T07:13:43;94022.00;;;8.72;61.40
56831;BME280;42713;42.676;23.352;2023-04-02T07:16:18;94019.72;;;8.76;61.23
56831;BME280;42713;42.676;23.352;2023-04-02T07:18:46;94022.91;;;8.83;61.98
56831;BME280;42713;42.676;23.352;2023-04-02T07:21:11;94027.41;;;8.93;62.00
56831;BME280;42713;42.676;23.352;2023-04-02T07:23:37;94031.13;;;8.97;61.51
56831;BME280;42713;42.676;23.352;2023-04-02T07:26:04;94030.66;;;9.05;61.27
56831;BME280;42713;42.676;23.352;2023-04-02T07:28:30;94032.03;;;9.13;61.30
56831;BME280;42713;42.676;23.352;2023-04-02T07:30:56;94032.34;;;9.22;60.99
56831;BME280;42713;42.676;23.352;2023-04-02T07:33:24;94035.56;;;9.29;61.14
56831;BME280;42713;42.676;23.352;2023-04-02T07:35:51;94032.47;;;9.37;60.87
56831;BME280;42713;42.676;23.352;2023-04-02T07:38:16;94031.72;;;9.47;61.12
56831;BME280;42713;42.676;23.352;2023-04-02T07:40:42;94034.63;;;9.50;60.00
56831;BME280;42713;42.676;23.352;2023-04-02T07:43:07;94037.00;;;9.52;59.96
56831;BME280;42713;42.676;23.352;2023-04-02T07:45:33;94038.13;;;9.66;60.09
56831;BME280;42713;42.676;23.352;2023-04-02T07:48:09;94036.09;;;9.79;59.55
56831;BME280;42713;42.676;23.352;2023-04-02T07:50:35;94027.25;;;9.85;58.45
56831;BME280;42713;42.676;23.352;2023-04-02T07:53:01;94025.47;;;9.96;57.97
56831;BME280;42713;42.676;23.352;2023-04-02T07:55:27;94024.97;;;10.04;57.41
56831;BME280;42713;42.676;23.352;2023-04-02T07:57:55;94030.25;;;10.15;57.21
56831;BME280;42713;42.676;23.352;2023-04-02T08:00:23;94032.09;;;10.24;55.57
56831;BME280;42713;42.676;23.352;2023-04-02T08:02:50;94031.88;;;10.26;53.15
56831;BME280;42713;42.676;23.352;2023-04-02T08:05:15;94030.31;;;10.35;53.35
56831;BME280;42713;42.676;23.352;2023-04-02T08:07:42;94039.75;;;10.36;54.01
56831;BME280;42713;42.676;23.352;2023-04-02T08:10:10;94040.59;;;10.47;53.97
56831;BME280;42713;42.676;23.352;2023-04-02T08:12:36;94038.00;;;10.52;51.65
56831;BME280;42713;42.676;23.352;2023-04-02T08:15:03;94035.66;;;10.61;52.03
56831;BME280;42713;42.676;23.352;2023-04-02T08:17:30;94052.66;;;10.64;52.37
56831;BME280;42713;42.676;23.352;2023-04-02T08:19:56;94043.00;;;10.69;49.71
56831;BME280;42713;42.676;23.352;2023-04-02T08:22:27;94051.66;;;10.70;49.58
56831;BME280;42713;42.676;23.352;2023-04-02T08:24:52;94048.00;;;10.76;50.01
56831;BME280;42713;42.676;23.352;2023-04-02T08:27:18;94052.44;;;10.81;50.09
56831;BME280;42713;42.676;23.352;2023-04-02T08:29:43;94048.50;;;10.83;49.41
56831;BME280;42713;42.676;23.352;2023-04-02T08:32:11;94043.28;;;10.78;49.35
56831;BME280;42713;42.676;23.352;2023-04-02T08:34:36;94054.03;;;10.87;49.73
56831;BME280;42713;42.676;23.352;2023-04-02T08:37:02;94051.16;;;10.88;49.56
56831;BME280;42713;42.676;23.352;2023-04-02T08:39:27;94059.28;;;11.02;49.86
56831;BME280;42713;42.676;23.352;2023-04-02T08:42:05;94059.03;;;11.09;48.93
56831;BME280;42713;42.676;23.352;2023-04-02T08:44:44;94049.34;;;11.10;48.52
56831;BME280;42713;42.676;23.352;2023-04-02T08:47:15;94065.06;;;11.20;48.45
56831;BME280;42713;42.676;23.352;2023-04-02T08:49:56;94058.00;;;11.26;47.40
56831;BME280;42713;42.676;23.352;2023-04-02T08:52:31;94045.94;;;11.30;47.34
56831;BME280;42713;42.676;23.352;2023-04-02T08:54:57;94044.91;;;11.31;49.33
56831;BME280;42713;42.676;23.352;2023-04-02T09:00:25;94040.16;;;11.33;49.22
56831;BME280;42713;42.676;23.352;2023-04-02T09:02:57;94041.19;;;11.42;49.77
56831;BME280;42713;42.676;23.352;2023-04-02T09:05:37;94045.91;;;11.56;50.13
56831;BME280;42713;42.676;23.352;2023-04-02T09:08:03;94048.78;;;11.70;48.09
56831;BME280;42713;42.676;23.352;2023-04-02T09:10:39;94055.56;;;11.81;48.29
56831;BME280;42713;42.676;23.352;2023-04-02T09:13:24;94040.91;;;11.70;47.93
56831;BME280;42713;42.676;23.352;2023-04-02T09:15:56;94030.09;;;11.81;48.10
56831;BME280;42713;42.676;23.352;2023-04-02T09:18:27;94037.72;;;11.88;48.80
56831;BME280;42713;42.676;23.352;2023-04-02T09:20:54;94051.06;;;12.02;46.01
56831;BME280;42713;42.676;23.352;2023-04-02T09:23:22;94039.53;;;11.93;45.39
56831;BME280;42713;42.676;23.352;2023-04-02T09:25:53;94044.25;;;11.96;45.33
56831;BME280;42713;42.676;23.352;2023-04-02T09:28:19;94031.66;;;12.03;46.69
56831;BME280;42713;42.676;23.352;2023-04-02T09:33:43;94041.56;;;12.27;47.55
56831;BME280;42713;42.676;23.352;2023-04-02T09:36:38;94034.72;;;12.21;47.13
56831;BME280;42713;42.676;23.352;2023-04-02T09:41:35;94032.38;;;12.19;46.16
56831;BME280;42713;42.676;23.352;2023-04-02T09:44:15;94028.19;;;12.23;45.88
56831;BME280;42713;42.676;23.352;2023-04-02T09:49:15;94032.91;;;12.21;46.90
56831;BME280;42713;42.676;23.352;2023-04-02T09:51:42;94032.31;;;12.35;46.41
56831;BME280;42713;42.676;23.352;2023-04-02T09:54:14;94035.75;;;12.35;45.54
56831;BME280;42713;42.676;23.352;2023-04-02T09:56:57;94022.41;;;12.16;46.09
56831;BME280;42713;42.676;23.352;2023-04-02T09:59:25;94013.25;;;12.13;45.52
56831;BME280;42713;42.676;23.352;2023-04-02T10:10:00;94018.19;;;12.25;44.71
56831;BME280;42713;42.676;23.352;2023-04-02T10:12:28;94021.34;;;12.22;43.33
56831;BME280;42713;42.676;23.352;2023-04-02T10:14:56;94007.41;;;12.27;43.01
56831;BME280;42713;42.676;23.352;2023-04-02T10:17:31;94005.50;;;12.43;42.67
56831;BME280;42713;42.676;23.352;2023-04-02T10:20:05;94003.63;;;12.49;43.00
56831;BME280;42713;42.676;23.352;2023-04-02T10:22:36;93994.72;;;12.44;44.51
56831;BME280;42713;42.676;23.352;2023-04-02T10:25:01;93988.00;;;12.73;45.04
56831;BME280;42713;42.676;23.352;2023-04-02T10:27:38;93999.72;;;12.86;43.57
56831;BME280;42713;42.676;23.352;2023-04-02T10:30:19;93997.13;;;12.81;44.23
56831;BME280;42713;42.676;23.352;2023-04-02T10:33:10;94003.06;;;12.52;44.15
56831;BME280;42713;42.676;23.352;2023-04-02T10:40:59;94009.63;;;12.54;44.94
56831;BME280;42713;42.676;23.352;2023-04-02T10:43:56;94006.19;;;12.59;44.93
56831;BME280;42713;42.676;23.352;2023-04-02T10:52:23;93994.78;;;12.79;43.99
56831;BME280;42713;42.676;23.352;2023-04-02T10:54:52;93996.59;;;12.79;44.85
56831;BME280;42713;42.676;23.352;2023-04-02T10:57:36;94002.00;;;12.98;44.76
56831;BME280;42713;42.676;23.352;2023-04-02T11:10:58;93983.34;;;13.29;42.42
56831;BME280;42713;42.676;23.352;2023-04-02T11:13:36;93988.16;;;13.51;42.49
56831;BME280;42713;42.676;23.352;2023-04-02T11:16:05;93982.97;;;13.70;41.95
56831;BME280;42713;42.676;23.352;2023-04-02T11:18:32;93988.28;;;13.89;41.83
56831;BME280;42713;42.676;23.352;2023-04-02T11:26:31;93982.34;;;13.78;40.66
56831;BME280;42713;42.676;23.352;2023-04-02T11:31:33;93987.72;;;13.68;41.20
56831;BME280;42713;42.676;23.352;2023-04-02T11:33:59;93984.91;;;13.59;41.18
56831;BME280;42713;42.676;23.352;2023-04-02T11:39:53;93988.25;;;13.70;40.99
56831;BME280;42713;42.676;23.352;2023-04-02T11:44:49;93964.44;;;13.80;40.76
56831;BME280;42713;42.676;23.352;2023-04-02T11:53:19;93959.22;;;13.99;39.86
56831;BME280;42713;42.676;23.352;2023-04-02T11:56:04;93964.47;;;13.99;40.28
56831;BME280;42713;42.676;23.352;2023-04-02T12:04:55;93957.03;;;14.26;39.88
56831;BME280;42713;42.676;23.352;2023-04-02T12:10:21;93955.69;;;14.28;40.01
56831;BME280;42713;42.676;23.352;2023-04-02T12:12:48;93962.09;;;14.22;39.01
56831;BME280;42713;42.676;23.352;2023-04-02T12:15:35;93956.69;;;14.32;39.39
56831;BME280;42713;42.676;23.352;2023-04-02T12:18:19;93962.81;;;14.47;38.78
56831;BME280;42713;42.676;23.352;2023-04-02T12:20:49;93962.66;;;14.19;39.33
56831;BME280;42713;42.676;23.352;2023-04-02T12:23:23;93949.56;;;14.14;39.78
56831;BME280;42713;42.676;23.352;2023-04-02T12:25:55;93956.22;;;14.06;39.56
56831;BME280;42713;42.676;23.352;2023-04-02T12:28:21;93959.03;;;14.15;39.71
56831;BME280;42713;42.676;23.352;2023-04-02T12:30:48;93957.81;;;14.26;39.01
56831;BME280;42713;42.676;23.352;2023-04-02T12:33:31;93954.47;;;14.40;39.76
56831;BME280;42713;42.676;23.352;2023-04-02T12:36:00;93956.81;;;14.60;38.80
56831;BME280;42713;42.676;23.352;2023-04-02T12:38:28;93948.91;;;14.79;38.43
56831;BME280;42713;42.676;23.352;2023-04-02T12:40:59;93950.97;;;15.02;37.55
56831;BME280;42713;42.676;23.352;2023-04-02T12:43:30;93964.75;;;15.13;36.94
56831;BME280;42713;42.676;23.352;2023-04-02T12:46:01;93946.50;;;15.30;36.61
56831;BME280;42713;42.676;23.352;2023-04-02T12:48:29;93960.44;;;15.64;36.59
56831;BME280;42713;42.676;23.352;2023-04-02T12:50:56;93943.44;;;15.70;35.93
56831;BME280;42713;42.676;23.352;2023-04-02T12:53:42;93947.41;;;15.53;35.55
56831;BME280;42713;42.676;23.352;2023-04-02T12:56:20;93940.06;;;15.22;36.22
56831;BME280;42713;42.676;23.352;2023-04-02T12:58:58;93938.91;;;15.43;35.72
56831;BME280;42713;42.676;23.352;2023-04-02T13:01:29;93934.88;;;15.17;35.53
56831;BME280;42713;42.676;23.352;2023-04-02T13:04:03;93932.91;;;15.09;36.29
56831;BME280;42713;42.676;23.352;2023-04-02T13:06:31;93934.78;;;15.22;36.72
56831;BME280;42713;42.676;23.352;2023-04-02T13:08:58;93936.75;;;15.17;35.94
56831;BME280;42713;42.676;23.352;2023-04-02T13:11:38;93929.72;;;15.40;36.36
56831;BME280;42713;42.676;23.352;2023-04-02T13:14:07;93930.31;;;15.65;36.05
56831;BME280;42713;42.676;23.352;2023-04-02T13:16:36;93935.31;;;15.80;34.89
56831;BME280;42713;42.676;23.352;2023-04-02T13:21:49;93928.59;;;15.88;35.02
56831;BME280;42713;42.676;23.352;2023-04-02T13:24:27;93922.69;;;16.56;35.02
56831;BME280;42713;42.676;23.352;2023-04-02T13:26:55;93908.34;;;17.25;33.93
56831;BME280;42713;42.676;23.352;2023-04-02T13:29:33;93905.31;;;17.89;32.88
56831;BME280;42713;42.676;23.352;2023-04-02T13:32:03;93909.47;;;18.40;31.33
56831;BME280;42713;42.676;23.352;2023-04-02T13:34:29;93901.81;;;18.73;30.51
56831;BME280;42713;42.676;23.352;2023-04-02T13:36:55;93910.25;;;18.31;30.67
56831;BME280;42713;42.676;23.352;2023-04-02T13:39:22;93906.97;;;18.17;30.76
56831;BME280;42713;42.676;23.352;2023-04-02T13:41:58;93901.16;;;18.06;30.18
56831;BME280;42713;42.676;23.352;2023-04-02T13:44:27;93901.44;;;17.96;30.03
56831;BME280;42713;42.676;23.352;2023-04-02T13:46:54;93901.00;;;18.02;29.58
56831;BME280;42713;42.676;23.352;2023-04-02T13:49:21;93927.34;;;18.08;29.89
56831;BME280;42713;42.676;23.352;2023-04-02T13:51:49;93903.81;;;18.06;29.70
56831;BME280;42713;42.676;23.352;2023-04-02T13:54:46;93903.53;;;18.16;29.08
56831;BME280;42713;42.676;23.352;2023-04-02T13:57:14;93900.22;;;17.53;29.08
56831;BME280;42713;42.676;23.352;2023-04-02T13:59:39;93908.91;;;17.85;29.51
56831;BME280;42713;42.676;23.352;2023-04-02T14:02:17;93908.81;;;18.16;28.33
56831;BME280;42713;42.676;23.352;2023-04-02T14:04:52;93908.53;;;18.44;27.99
56831;BME280;42713;42.676;23.352;2023-04-02T14:07:24;93902.44;;;18.61;28.07
56831;BME280;42713;42.676;23.352;2023-04-02T14:13:08;93896.31;;;18.87;28.19
56831;BME280;42713;42.676;23.352;2023-04-02T14:15:46;93903.22;;;18.44;28.60
56831;BME280;42713;42.676;23.352;2023-04-02T14:18:44;93897.00;;;18.31;28.66
56831;BME280;42713;42.676;23.352;2023-04-02T14:21:32;93903.38;;;18.13;29.14
56831;BME280;42713;42.676;23.352;2023-04-02T14:30:03;93896.66;;;18.86;27.86
56831;BME280;42713;42.676;23.352;2023-04-02T14:32:44;93891.81;;;18.79;28.08
56831;BME280;42713;42.676;23.352;2023-04-02T14:35:28;93894.16;;;19.54;27.46
56831;BME280;42713;42.676;23.352;2023-04-02T14:43:21;93889.91;;;19.15;27.25
56831;BME280;42713;42.676;23.352;2023-04-02T14:46:02;93891.34;;;19.89;26.49
56831;BME280;42713;42.676;23.352;2023-04-02T14:51:04;93883.25;;;20.71;25.60
56831;BME280;42713;42.676;23.352;2023-04-02T14:56:24;93884.41;;;21.15;24.63
56831;BME280;42713;42.676;23.352;2023-04-02T15:01:43;93894.41;;;20.64;24.96
56831;BME280;42713;42.676;23.352;2023-04-02T15:04:16;93911.03;;;20.18;25.58
56831;BME280;42713;42.676;23.352;2023-04-02T15:06:49;93904.75;;;19.16;27.04
56831;BME280;42713;42.676;23.352;2023-04-02T15:09:27;93908.03;;;19.12;27.11
56831;BME280;42713;42.676;23.352;2023-04-02T15:12:16;93915.69;;;19.05;26.74
56831;BME280;42713;42.676;23.352;2023-04-02T15:14:46;93921.63;;;18.67;27.30
56831;BME280;42713;42.676;23.352;2023-04-02T15:17:13;93913.84;;;18.71;27.29
56831;BME280;42713;42.676;23.352;2023-04-02T15:19:38;93911.31;;;19.01;27.18
56831;BME280;42713;42.676;23.352;2023-04-02T15:22:18;93915.63;;;19.32;26.52
56831;BME280;42713;42.676;23.352;2023-04-02T15:30:11;93915.56;;;19.49;26.29
56831;BME280;42713;42.676;23.352;2023-04-02T15:32:40;93910.41;;;19.92;25.95
56831;BME280;42713;42.676;23.352;2023-04-02T15:35:25;93924.59;;;19.96;25.45
56831;BME280;42713;42.676;23.352;2023-04-02T15:43:42;93921.78;;;20.01;25.10
56831;BME280;42713;42.676;23.352;2023-04-02T15:46:14;93910.72;;;19.90;25.40
56831;BME280;42713;42.676;23.352;2023-04-02T15:48:57;93921.03;;;19.53;25.63
56831;BME280;42713;42.676;23.352;2023-04-02T15:57:01;93923.94;;;20.08;24.95
56831;BME280;42713;42.676;23.352;2023-04-02T16:00:10;93937.22;;;19.69;24.27
56831;BME280;42713;42.676;23.352;2023-04-02T16:10:38;93936.88;;;19.70;24.45
56831;BME280;42713;42.676;23.352;2023-04-02T16:15:56;93933.81;;;19.51;24.58
56831;BME280;42713;42.676;23.352;2023-04-02T16:21:13;93932.63;;;19.78;24.70
56831;BME280;42713;42.676;23.352;2023-04-02T16:23:41;93928.56;;;19.89;24.45
56831;BME280;42713;42.676;23.352;2023-04-02T16:26:29;93929.81;;;20.13;23.82
56831;BME280;42713;42.676;23.352;2023-04-02T16:29:27;93937.63;;;19.88;24.22
56831;BME280;42713;42.676;23.352;2023-04-02T16:32:37;93934.13;;;19.97;24.32
56831;BME280;42713;42.676;23.352;2023-04-02T16:40:50;93948.16;;;19.20;25.06
56831;BME280;42713;42.676;23.352;2023-04-02T17:05:54;93970.94;;;16.98;28.07
56831;BME280;42713;42.676;23.352;2023-04-02T17:08:25;93973.56;;;16.98;28.20
56831;BME280;42713;42.676;23.352;2023-04-02T17:11:23;93966.91;;;17.01;28.68
56831;BME280;42713;42.676;23.352;2023-04-02T17:16:43;93978.16;;;17.06;28.86
56831;BME280;42713;42.676;23.352;2023-04-02T17:19:12;93982.19;;;17.04;29.20
56831;BME280;42713;42.676;23.352;2023-04-02T17:21:41;93980.63;;;17.03;29.47